Keeseville, New York
Current Conditions -  °F | °C
As of 4:53 PM on Thursday 18 Dec 2014 (Local Time) from KPBG Reporting Station
Overcast Overcast  
Wind Chill: 26°   Ceiling: 2300
Heat Index: 32°   Visibility: 10mi
Dew Point: 25°   Wind: 7mph
Humidity: 75%   Direction: 290°WNW
Pressure: 29.91"   Gusts: NA
Location:  44.5°N, 73.48°W
Report Text: KPBG 182153Z AUTO 29006KT 10SM OVC023 00/M04 A2991 RMK AO2 SLP131 T00001039
Loading
Personal Weather Stations






























Interactive Weather Map New forecast layout! Learn more

10-Day Weather Forecast

Advertisements
Track Severe Weather on mobile